createdAt,value
2022-11-22T00:00:31.886Z,99842.34
2022-11-22T00:03:15.677Z,99847.88
2022-11-22T00:05:59.103Z,99846.91
2022-11-22T00:08:42.522Z,99835.13
2022-11-22T00:11:26.012Z,99838.06
2022-11-22T00:14:09.500Z,99841.50
2022-11-22T00:16:53.006Z,99842.09
2022-11-22T00:19:39.376Z,99844.28
2022-11-22T00:22:22.810Z,99833.88
2022-11-22T00:25:07.704Z,99828.53
2022-11-22T00:27:51.154Z,99819.94
2022-11-22T00:30:34.549Z,99812.19
2022-11-22T00:33:17.988Z,99802.63
2022-11-22T00:36:01.398Z,99800.44
2022-11-22T00:38:44.915Z,99802.03
2022-11-22T00:41:28.351Z,99799.06
2022-11-22T00:44:11.782Z,99796.44
2022-11-22T00:46:55.285Z,99803.88
2022-11-22T00:49:38.802Z,99816.19
2022-11-22T00:52:22.254Z,99813.00
2022-11-22T00:55:06.313Z,99817.34
2022-11-22T00:57:49.822Z,99812.78
2022-11-22T01:00:33.351Z,99809.53
2022-11-22T01:03:17.121Z,99801.56
2022-11-22T01:06:00.557Z,99810.63
2022-11-22T01:08:44.127Z,99801.00
2022-11-22T01:11:27.773Z,99790.59
2022-11-22T01:14:11.233Z,99790.84
2022-11-22T01:16:54.712Z,99781.00
2022-11-22T01:19:38.167Z,99781.00
2022-11-22T01:22:21.852Z,99784.97
2022-11-22T01:25:05.896Z,99788.19
2022-11-22T01:27:51.019Z,99783.94
2022-11-22T01:30:34.453Z,99788.47
2022-11-22T01:33:18.692Z,99773.78
2022-11-22T01:36:02.190Z,99779.09
2022-11-22T01:38:48.094Z,99783.66
2022-11-22T01:41:32.031Z,99781.53
2022-11-22T01:44:31.871Z,99786.34
2022-11-22T01:47:20.057Z,99797.81
2022-11-22T01:50:07.731Z,99799.63
2022-11-22T01:52:51.175Z,99801.53
2022-11-22T01:55:36.577Z,99804.25
2022-11-22T01:58:23.613Z,99803.41
2022-11-22T02:01:08.244Z,99795.66
2022-11-22T02:03:56.370Z,99804.00
2022-11-22T02:06:57.444Z,99798.94
2022-11-22T02:09:43.435Z,99799.19
2022-11-22T02:12:31.873Z,99792.28
2022-11-22T02:15:15.644Z,99790.88
2022-11-22T02:17:59.097Z,99785.31
2022-11-22T02:20:42.802Z,99789.63
2022-11-22T02:23:44.328Z,99783.72
2022-11-22T02:26:30.105Z,99779.16
2022-11-22T02:29:14.153Z,99768.75
2022-11-22T02:31:57.604Z,99765.78
2022-11-22T02:34:46.828Z,99753.78
2022-11-22T02:37:33.282Z,99751.34
2022-11-22T02:40:18.782Z,99753.72
2022-11-22T02:43:08.030Z,99746.50
2022-11-22T02:45:51.533Z,99750.84
2022-11-22T02:48:35.072Z,99755.34
2022-11-22T02:51:20.153Z,99757.75
2022-11-22T02:54:03.860Z,99748.16
2022-11-22T02:56:47.572Z,99750.53
2022-11-22T02:59:31.591Z,99739.84
2022-11-22T03:02:15.358Z,99731.03
2022-11-22T03:04:58.808Z,99728.13
2022-11-22T03:07:42.335Z,99735.34
2022-11-22T03:10:26.106Z,99739.81
2022-11-22T03:13:09.538Z,99730.53
2022-11-22T03:15:53.044Z,99726.75
2022-11-22T03:18:37.727Z,99722.47
2022-11-22T03:21:21.174Z,99719.31
2022-11-22T03:24:05.458Z,99722.22
2022-11-22T03:26:50.486Z,99726.25
2022-11-22T03:29:33.911Z,99724.41
2022-11-22T03:32:17.380Z,99727.03
2022-11-22T03:35:00.838Z,99732.09
2022-11-22T03:37:44.298Z,99732.41
2022-11-22T03:40:27.727Z,99724.09
2022-11-22T03:43:11.159Z,99719.84
2022-11-22T03:45:54.670Z,99728.66
2022-11-22T03:48:38.125Z,99725.41
2022-11-22T03:51:21.595Z,99716.13
2022-11-22T03:54:05.098Z,99722.25
2022-11-22T03:56:48.530Z,99723.84
2022-11-22T03:59:32.805Z,99730.00
2022-11-22T04:02:17.161Z,99723.03
2022-11-22T04:05:00.627Z,99717.97
2022-11-22T04:07:44.128Z,99708.09
2022-11-22T04:10:27.741Z,99706.22
2022-11-22T04:13:11.195Z,99701.41
2022-11-22T04:15:55.884Z,99700.03
2022-11-22T04:18:39.285Z,99702.22
2022-11-22T04:21:34.698Z,99704.34
2022-11-22T04:24:36.591Z,99704.34
2022-11-22T04:27:20.035Z,99701.41
2022-11-22T04:30:03.781Z,99698.75
2022-11-22T04:32:47.267Z,99703.56
2022-11-22T04:35:30.714Z,99707.03
2022-11-22T04:38:15.864Z,99705.72
2022-11-22T04:40:59.408Z,99705.69
2022-11-22T04:44:01.529Z,99698.50
2022-11-22T04:46:45.123Z,99704.09
2022-11-22T04:49:28.993Z,99697.97
2022-11-22T04:52:30.937Z,99697.44
2022-11-22T04:55:14.554Z,99698.25
2022-11-22T04:58:00.272Z,99706.50
2022-11-22T05:00:44.266Z,99696.38
2022-11-22T05:03:27.839Z,99705.19
2022-11-22T05:06:14.740Z,99702.25
2022-11-22T05:08:58.168Z,99700.91
2022-11-22T05:11:41.733Z,99710.00
2022-11-22T05:14:25.173Z,99702.50
2022-11-22T05:17:12.930Z,99709.44
2022-11-22T05:19:56.740Z,99705.69
2022-11-22T05:22:58.692Z,99700.66
2022-11-22T05:25:42.241Z,99685.91
2022-11-22T05:28:31.336Z,99683.78
2022-11-22T05:31:18.874Z,99678.72
2022-11-22T05:34:02.884Z,99692.63
2022-11-22T05:36:46.315Z,99685.94
2022-11-22T05:39:30.171Z,99690.19
2022-11-22T05:42:13.993Z,99692.59
2022-11-22T05:44:57.500Z,99697.72
2022-11-22T05:47:41.388Z,99685.91
2022-11-22T05:50:25.704Z,99685.63
2022-11-22T05:53:12.107Z,99692.03
2022-11-22T05:55:55.571Z,99694.16
2022-11-22T05:58:39.022Z,99696.88
2022-11-22T06:01:25.427Z,99707.56
2022-11-22T06:04:09.562Z,99692.06
2022-11-22T06:06:53.235Z,99694.19
2022-11-22T06:09:37.000Z,99698.72
2022-11-22T06:12:20.615Z,99695.78
2022-11-22T06:15:04.527Z,99701.41
2022-11-22T06:17:48.229Z,99704.88
2022-11-22T06:20:31.630Z,99717.16
2022-11-22T06:23:15.093Z,99718.75
2022-11-22T06:26:20.314Z,99721.69
2022-11-22T06:29:03.965Z,99718.75
2022-11-22T06:31:47.427Z,99721.41
2022-11-22T06:34:30.956Z,99722.50
2022-11-22T06:37:17.343Z,99727.53
2022-11-22T06:40:00.787Z,99733.72
2022-11-22T06:42:44.232Z,99727.50
2022-11-22T06:45:27.772Z,99740.03
2022-11-22T06:48:11.173Z,99741.16
2022-11-22T06:51:02.915Z,99742.75
2022-11-22T06:53:49.228Z,99750.25
2022-11-22T06:56:40.406Z,99748.06
2022-11-22T06:59:23.926Z,99746.75
2022-11-22T07:02:11.949Z,99745.91
2022-11-22T07:05:23.244Z,99747.28
2022-11-22T07:08:06.686Z,99745.13
2022-11-22T07:10:54.171Z,99747.38
2022-11-22T07:13:38.161Z,99756.47
2022-11-22T07:16:22.355Z,99759.22
2022-11-22T07:19:07.151Z,99764.84
2022-11-22T07:21:50.834Z,99778.78
2022-11-22T07:24:34.422Z,99779.63
2022-11-22T07:27:17.964Z,99767.84
2022-11-22T07:30:01.430Z,99769.97
2022-11-22T07:32:48.863Z,99772.38
2022-11-22T07:35:32.795Z,99779.59
2022-11-22T07:38:16.288Z,99779.59
2022-11-22T07:41:03.273Z,99782.72
2022-11-22T07:43:47.298Z,99776.34
2022-11-22T07:46:31.958Z,99782.22
2022-11-22T07:49:15.637Z,99768.88
2022-11-22T07:51:59.556Z,99769.69
2022-11-22T07:54:43.390Z,99768.63
2022-11-22T07:57:27.006Z,99766.16
2022-11-22T08:00:11.498Z,99748.72
2022-11-22T08:02:55.131Z,99744.50
2022-11-22T08:05:38.540Z,99737.88
2022-11-22T08:08:22.058Z,99735.63
2022-11-22T08:11:07.256Z,99733.50
2022-11-22T08:13:50.785Z,99728.13
2022-11-22T08:16:34.228Z,99737.44
2022-11-22T08:19:18.057Z,99728.06
2022-11-22T08:22:01.645Z,99733.78
2022-11-22T08:24:45.129Z,99737.38
2022-11-22T08:27:28.630Z,99733.69
2022-11-22T08:30:12.466Z,99726.75
2022-11-22T08:32:56.793Z,99713.09
2022-11-22T08:35:40.247Z,99724.88
2022-11-22T08:38:24.085Z,99710.13
2022-11-22T08:41:07.660Z,99713.88
2022-11-22T08:43:52.874Z,99719.00
2022-11-22T08:46:36.350Z,99732.03
2022-11-22T08:49:19.842Z,99734.69
2022-11-22T08:52:03.443Z,99732.63
2022-11-22T08:54:46.904Z,99733.88
2022-11-22T08:57:30.406Z,99731.47
2022-11-22T09:00:14.785Z,99737.56
2022-11-22T09:02:58.215Z,99739.69
2022-11-22T09:08:55.319Z,99763.53
2022-11-22T09:11:46.733Z,99779.84
2022-11-22T09:14:30.251Z,99784.22
2022-11-22T09:17:17.739Z,99790.19
2022-11-22T09:20:01.783Z,99789.09
2022-11-22T09:22:45.219Z,99783.00
2022-11-22T09:25:28.674Z,99780.75
2022-11-22T09:28:12.221Z,99779.69
2022-11-22T09:31:05.406Z,99782.09
2022-11-22T09:33:50.141Z,99769.88
2022-11-22T09:36:33.657Z,99772.94
2022-11-22T09:39:17.076Z,99768.63
2022-11-22T09:43:00.830Z,99765.19
2022-11-22T09:46:11.300Z,99774.34
2022-11-22T09:49:13.471Z,99776.31
2022-11-22T09:52:11.267Z,99777.53
2022-11-22T09:55:07.039Z,99775.75
2022-11-22T09:58:32.080Z,99777.53
2022-11-22T10:01:47.325Z,99782.97
2022-11-22T10:04:47.809Z,99786.56
2022-11-22T10:07:42.862Z,99784.66
2022-11-22T10:10:41.861Z,99775.28
2022-11-22T10:13:45.605Z,99776.47
2022-11-22T10:16:44.226Z,99781.13
2022-11-22T10:19:41.792Z,99783.50
2022-11-22T10:22:30.171Z,99783.19
2022-11-22T10:25:44.232Z,99781.47
2022-11-22T10:29:15.138Z,99783.91
2022-11-22T10:32:21.643Z,99781.06
2022-11-22T10:35:33.721Z,99775.91
2022-11-22T10:38:32.394Z,99780.09
2022-11-22T10:41:37.460Z,99776.56
2022-11-22T10:44:47.539Z,99777.44
2022-11-22T10:48:21.988Z,99786.66
2022-11-22T10:51:28.860Z,99777.19
2022-11-22T10:54:27.265Z,99773.25
2022-11-22T10:57:37.780Z,99766.53
2022-11-22T11:00:25.212Z,99768.84
2022-11-22T11:03:30.327Z,99770.41
2022-11-22T11:06:57.036Z,99766.41
2022-11-22T11:10:18.004Z,99778.09
2022-11-22T11:13:26.191Z,99777.75
2022-11-22T11:16:17.989Z,99773.16
2022-11-22T11:19:12.075Z,99770.06
2022-11-22T11:22:30.459Z,99767.09
2022-11-22T11:25:33.464Z,99768.19
2022-11-22T11:28:26.099Z,99764.72
2022-11-22T11:31:13.410Z,99755.94
2022-11-22T11:34:24.934Z,99761.34
2022-11-22T11:37:32.694Z,99757.63
2022-11-22T11:40:32.678Z,99750.81
2022-11-22T11:43:21.689Z,99755.91
2022-11-22T11:46:40.378Z,99755.06
2022-11-22T11:49:52.658Z,99753.72
2022-11-22T11:52:36.589Z,99751.16
2022-11-22T11:55:21.055Z,99757.53
2022-11-22T11:58:24.548Z,99754.31
2022-11-22T12:01:11.576Z,99758.38
2022-11-22T12:04:01.420Z,99753.06
2022-11-22T12:07:06.397Z,99760.03
2022-11-22T12:09:53.823Z,99756.31
2022-11-22T12:12:49.354Z,99757.19
2022-11-22T12:16:09.246Z,99752.06
2022-11-22T12:19:12.709Z,99749.50
2022-11-22T12:22:35.543Z,99752.03
2022-11-22T12:28:39.870Z,99747.56
2022-11-22T12:32:06.775Z,99747.78
2022-11-22T12:35:12.379Z,99742.09
2022-11-22T12:38:31.801Z,99728.16
2022-11-22T12:41:20.567Z,99723.56
2022-11-22T12:44:12.321Z,99721.97
2022-11-22T12:47:25.901Z,99715.44
2022-11-22T12:48:22.533Z,99755.13
2022-11-22T12:50:37.800Z,99731.66
2022-11-22T12:53:43.948Z,99744.97
2022-11-22T12:57:01.481Z,99748.31
2022-11-22T13:00:00.254Z,99744.06
2022-11-22T13:03:13.052Z,99738.06
2022-11-22T13:06:01.176Z,99743.84
2022-11-22T13:09:15.759Z,99734.84
2022-11-22T13:12:14.916Z,99724.81
2022-11-22T13:15:00.402Z,99726.13
2022-11-22T13:17:44.009Z,99722.47
2022-11-22T13:20:42.705Z,99722.91
2022-11-22T13:23:56.161Z,99724.81
2022-11-22T13:27:06.867Z,99716.00
2022-11-22T13:29:58.300Z,99715.38
2022-11-22T13:32:43.011Z,99718.66
2022-11-22T13:35:37.904Z,99721.56
2022-11-22T13:38:22.567Z,99733.63
2022-11-22T13:41:50.691Z,99739.00
2022-11-22T13:44:49.021Z,99742.38
2022-11-22T13:47:42.028Z,99746.41
2022-11-22T13:50:40.725Z,99739.44
2022-11-22T13:53:31.887Z,99733.28
2022-11-22T13:56:15.308Z,99729.81
2022-11-22T13:59:19.124Z,99730.16
2022-11-22T14:02:21.372Z,99724.78
2022-11-22T14:05:39.649Z,99712.84
2022-11-22T14:08:33.675Z,99713.31
2022-11-22T14:11:20.122Z,99717.03
2022-11-22T14:14:26.145Z,99711.78
2022-11-22T14:17:24.717Z,99718.66
2022-11-22T14:21:06.999Z,99724.72
2022-11-22T14:24:31.302Z,99725.47
2022-11-22T14:27:48.786Z,99733.91
2022-11-22T14:30:51.795Z,99727.31
2022-11-22T14:33:35.356Z,99741.88
2022-11-22T14:36:19.192Z,99737.19
2022-11-22T14:39:44.139Z,99736.22
2022-11-22T14:42:55.514Z,99731.28
2022-11-22T14:46:01.608Z,99734.66
2022-11-22T14:49:15.753Z,99739.47
2022-11-22T14:52:00.336Z,99743.88
2022-11-22T14:54:52.183Z,99735.84
2022-11-22T14:57:37.774Z,99734.28
2022-11-22T15:00:25.450Z,99740.84
2022-11-22T15:03:46.364Z,99730.34
2022-11-22T15:09:20.092Z,99740.97
2022-11-22T15:11:04.123Z,99732.44
2022-11-22T15:14:44.231Z,99736.69
2022-11-22T15:59:50.106Z,99762.88
2022-11-22T16:02:40.149Z,99775.22
2022-11-22T16:06:05.313Z,99772.31
2022-11-22T16:08:57.690Z,99780.88
2022-11-22T16:11:41.376Z,99778.06
2022-11-22T16:14:46.876Z,99781.41
2022-11-22T16:17:38.027Z,99785.69
2022-11-22T16:20:42.017Z,99784.03
2022-11-22T16:23:28.533Z,99771.63
2022-11-22T16:26:25.104Z,99774.94
2022-11-22T16:29:33.975Z,99765.34
2022-11-22T16:32:18.060Z,99776.75
2022-11-22T16:35:22.033Z,99774.72
2022-11-22T16:38:07.179Z,99771.16
2022-11-22T16:40:52.689Z,99770.59
2022-11-22T16:43:36.229Z,99775.38
2022-11-22T16:46:20.726Z,99774.94
2022-11-22T16:49:20.845Z,99777.03
2022-11-22T16:52:04.410Z,99777.00
2022-11-22T16:54:49.357Z,99788.75
2022-11-22T16:57:32.883Z,99800.31
2022-11-22T17:00:17.056Z,99802.13
2022-11-22T17:03:02.063Z,99807.41
2022-11-22T17:05:46.328Z,99804.88
2022-11-22T17:08:29.898Z,99818.91
2022-11-22T17:11:17.735Z,99817.16
2022-11-22T17:14:01.526Z,99824.25
2022-11-22T17:16:45.978Z,99827.53
2022-11-22T17:19:57.637Z,99823.28
2022-11-22T17:22:35.941Z,99820.06
2022-11-22T17:25:19.527Z,99817.59
2022-11-22T17:28:03.190Z,99815.13
2022-11-22T17:30:46.919Z,99827.41
2022-11-22T17:33:30.484Z,99823.31
2022-11-22T17:36:22.479Z,99822.75
2022-11-22T17:39:13.813Z,99817.97
2022-11-22T17:41:57.848Z,99826.09
2022-11-22T17:44:41.334Z,99826.97
2022-11-22T17:47:24.800Z,99823.63
2022-11-22T17:50:09.073Z,99829.88
2022-11-22T17:52:52.944Z,99834.66
2022-11-22T17:56:02.675Z,99841.00
2022-11-22T17:58:43.453Z,99843.47
2022-11-22T18:01:26.962Z,99840.28
2022-11-22T18:04:10.606Z,99849.00
2022-11-22T18:06:54.058Z,99846.94
2022-11-22T18:09:37.626Z,99848.44
2022-11-22T18:12:21.756Z,99859.78
2022-11-22T18:15:06.484Z,99860.44
2022-11-22T18:17:49.942Z,99863.06
2022-11-22T18:20:33.416Z,99865.50
2022-11-22T18:23:18.069Z,99867.75
2022-11-22T18:32:17.779Z,99867.56
2022-11-22T18:35:01.224Z,99868.91
2022-11-22T18:37:44.950Z,99870.22
2022-11-22T18:40:28.414Z,99865.25
2022-11-22T18:43:12.215Z,99871.72
2022-11-22T18:46:03.740Z,99872.03
2022-11-22T18:48:50.482Z,99872.34
2022-11-22T18:51:33.965Z,99871.97
2022-11-22T18:54:18.456Z,99876.66
2022-11-22T18:57:02.669Z,99866.72
2022-11-22T18:59:46.139Z,99870.84
2022-11-22T19:02:30.081Z,99861.50
2022-11-22T19:05:14.436Z,99868.81
2022-11-22T19:07:57.954Z,99869.28
2022-11-22T19:10:43.972Z,99873.19
2022-11-22T19:13:27.659Z,99867.72
2022-11-22T19:16:16.711Z,99876.50
2022-11-22T19:19:00.348Z,99871.97
2022-11-22T19:21:43.885Z,99880.53
2022-11-22T19:24:28.963Z,99886.47
2022-11-22T19:27:12.870Z,99895.72
2022-11-22T19:29:56.502Z,99895.50
2022-11-22T19:32:40.216Z,99889.25
2022-11-22T19:35:23.654Z,99902.63
2022-11-22T19:38:08.035Z,99912.72
2022-11-22T19:40:52.336Z,99907.38
2022-11-22T19:43:37.057Z,99910.50
2022-11-22T19:46:20.642Z,99900.59
2022-11-22T19:49:06.168Z,99901.81
2022-11-22T19:51:49.657Z,99903.19
2022-11-22T19:54:33.179Z,99906.03
2022-11-22T19:57:17.395Z,99909.81
2022-11-22T20:00:00.978Z,99903.66
2022-11-22T20:02:44.712Z,99905.47
2022-11-22T20:05:32.187Z,99906.47
2022-11-22T20:08:15.766Z,99905.47
2022-11-22T20:11:06.312Z,99904.53
2022-11-22T20:13:52.126Z,99903.94
2022-11-22T20:16:41.199Z,99901.44
2022-11-22T20:19:27.549Z,99899.81
2022-11-22T20:22:13.424Z,99905.03
2022-11-22T20:24:56.901Z,99901.75
2022-11-22T20:27:40.391Z,99910.06
2022-11-22T20:30:23.913Z,99919.31
2022-11-22T20:33:08.127Z,99916.03
2022-11-22T20:35:51.655Z,99910.72
2022-11-22T20:38:37.293Z,99913.13
2022-11-22T20:41:25.559Z,99912.75
2022-11-22T20:44:13.807Z,99908.88
2022-11-22T20:46:57.349Z,99905.84
2022-11-22T20:49:45.329Z,99900.97
2022-11-22T20:52:29.158Z,99902.72
2022-11-22T20:55:12.652Z,99893.31
2022-11-22T20:57:56.133Z,99902.22
2022-11-22T21:00:39.596Z,99901.53
2022-11-22T21:03:24.587Z,99899.22
2022-11-22T21:06:08.405Z,99901.44
2022-11-22T21:08:52.017Z,99895.31
2022-11-22T21:11:35.763Z,99890.28
2022-11-22T21:14:20.823Z,99885.81
2022-11-22T21:17:29.968Z,99898.66
2022-11-22T21:20:08.481Z,99905.31
2022-11-22T21:22:54.992Z,99910.13
2022-11-22T21:25:38.567Z,99908.09
2022-11-22T21:28:22.181Z,99916.81
2022-11-22T21:31:06.233Z,99913.34
2022-11-22T21:33:50.521Z,99907.16
2022-11-22T21:36:33.950Z,99906.75
2022-11-22T21:39:17.492Z,99910.72
2022-11-22T21:42:01.152Z,99903.38
2022-11-22T21:44:44.583Z,99895.09
2022-11-22T21:47:28.209Z,99897.69
2022-11-22T21:50:13.100Z,99901.72
2022-11-22T21:52:56.552Z,99903.66
2022-11-22T21:55:52.678Z,99897.91
2022-11-22T21:58:36.208Z,99898.44
2022-11-22T22:01:20.166Z,99904.81
2022-11-22T22:04:04.608Z,99909.59
2022-11-22T22:06:48.046Z,99911.34
2022-11-22T22:09:31.725Z,99910.78
2022-11-22T22:12:15.354Z,99913.41
2022-11-22T22:14:58.868Z,99917.31
2022-11-22T22:17:42.304Z,99921.81
2022-11-22T22:20:26.392Z,99929.72
2022-11-22T22:23:10.009Z,99928.63
2022-11-22T22:26:01.717Z,99923.66
2022-11-22T22:28:46.034Z,99919.97
2022-11-22T22:31:29.566Z,99919.13
2022-11-22T22:34:15.772Z,99925.06
2022-11-22T22:36:59.320Z,99922.69
2022-11-22T22:39:43.982Z,99921.91
2022-11-22T22:42:27.589Z,99927.28
2022-11-22T22:45:11.838Z,99928.56
2022-11-22T22:47:55.407Z,99923.44
2022-11-22T22:50:38.879Z,99931.34
2022-11-22T22:53:22.347Z,99927.38
2022-11-22T22:56:07.997Z,99929.28
2022-11-22T22:58:56.747Z,99924.03
2022-11-22T23:01:40.259Z,99924.09
2022-11-22T23:04:23.811Z,99927.09
2022-11-22T23:07:07.607Z,99919.75
2022-11-22T23:09:51.088Z,99922.97
2022-11-22T23:12:34.721Z,99923.44
2022-11-22T23:15:32.916Z,99920.59
2022-11-22T23:18:21.623Z,99916.28
2022-11-22T23:21:07.651Z,99919.53
2022-11-22T23:23:53.353Z,99924.97
2022-11-22T23:26:37.899Z,99919.25
2022-11-22T23:29:21.524Z,99922.66
2022-11-22T23:32:05.310Z,99923.81
2022-11-22T23:34:48.808Z,99918.78
2022-11-22T23:37:32.251Z,99924.63
2022-11-22T23:40:15.983Z,99925.22
2022-11-22T23:42:59.617Z,99924.97
2022-11-22T23:45:46.558Z,99929.78
2022-11-22T23:48:30.247Z,99923.63
2022-11-22T23:51:15.398Z,99924.47
2022-11-22T23:54:02.640Z,99921.53
2022-11-22T23:56:46.104Z,99922.25
2022-11-22T23:59:29.738Z,99912.88
